Skip Navigation LinksHome page > Weather > Current weather Skip Navigation Links

Current Weather

Chicago O'Hare Intl, Chicago

For information only: do not use for flight planning or navigation.
Latest weather
Observation time Friday, July 31, 2015 7:51 PM CDT
Local time Monday, August 31, 2015 8:47 PM CDT
Flight conditions Visual Meteorological Conditions
Winds
Wind direction East-Northeast (70°)
Wind speed 3 mph
Visibility 10 mi.
Sky condition
Ceiling unlimited
Cloud layer few clouds 5,000 ft.
Temperature 78°F
Dewpoint 68°F
Altimeter 30.01 in.Hg
Derived measurements
Relative humidity 71%
Heat index 78°F
Density altitude 2110 ft.
Sea-level pressure 30.00 in.Hg
Remarks
Automated weather observing station with precipitation discriminator.
METAR KORD 010051Z 07003KT 10SM FEW050 26/20 A3001 RMK AO2 SLP160 T02560200

Settings

Location code

InnerDrive.Weather 4.0.5722.1 Release CLR 4.0.30319.34014
Copyright ©2015 Inner Drive Technology. All rights reserved. Portions Copyright ©1986-2015 David Braverman.

Find weather

Site navigation


Skip Navigation Links

Place info

Page info

PayPal - The safer, easier way to pay online!

Return home.

Copyright ©2015 Inner Drive Technology. Purveyors of fine, hand-crafted computer software. Page printed 2015-09-01T01:47:30 UTC.